Time;durP1;ratioP1;P1;durP2;ratioP2;P2;SDS_P1;SDS_P2;PMS_P1;PMS_P2;Temp;Humidity;BMP_temperature;BMP_pressure;BME280_temperature;BME280_humidity;BME280_pressure;Samples;Min_cycle;Max_cycle;Signal;HPM_P1;HPM_P2
2021/06/05 00:00:19;;;;;;;2.63;2.17;;;21.40;99.90;;;;;;5034182;28;20537;-71
2021/06/05 00:02:45;;;;;;;1.53;1.40;;;21.30;99.90;;;;;;5050392;28;20231;-72
2021/06/05 00:05:11;;;;;;;2.17;2.03;;;21.30;99.90;;;;;;5066873;28;20451;-72
2021/06/05 00:07:36;;;;;;;1.90;1.70;;;21.30;99.90;;;;;;5067252;28;20751;-71
2021/06/05 00:10:06;;;;;;;2.33;2.00;;;21.20;99.90;;;;;;5050701;28;20227;-71
2021/06/05 00:12:32;;;;;;;2.33;2.13;;;21.10;99.90;;;;;;5033777;28;20310;-71
2021/06/05 00:14:58;;;;;;;2.40;2.10;;;21.00;99.90;;;;;;5051268;28;20538;-71
2021/06/05 00:17:24;;;;;;;2.83;2.13;;;21.00;99.90;;;;;;5067228;28;20237;-71
2021/06/05 00:19:50;;;;;;;1.97;1.77;;;20.90;99.90;;;;;;5032693;28;20243;-72
2021/06/05 00:22:22;;;;;;;1.90;1.80;;;21.00;99.90;;;;;;5032295;28;20989;-72
2021/06/05 00:24:48;;;;;;;1.93;1.83;;;20.90;99.90;;;;;;5050026;28;20526;-72
2021/06/05 00:27:13;;;;;;;1.83;1.73;;;20.90;99.90;;;;;;5033969;28;20538;-71
2021/06/05 00:29:39;;;;;;;1.60;1.50;;;20.90;99.90;;;;;;5033349;28;20291;-71
2021/06/05 00:32:05;;;;;;;2.70;2.50;;;21.00;99.90;;;;;;5033743;28;20219;-72
2021/06/05 00:34:31;;;;;;;4.00;2.10;;;20.90;99.90;;;;;;5050033;28;20216;-72
2021/06/05 00:36:57;;;;;;;3.03;2.70;;;20.80;99.90;;;;;;5032275;28;20439;-72
2021/06/05 00:39:23;;;;;;;1.90;1.80;;;20.60;99.90;;;;;;5032971;28;20234;-71
2021/06/05 00:41:49;;;;;;;2.03;1.90;;;20.60;99.90;;;;;;5066231;28;20537;-71
2021/06/05 00:44:15;;;;;;;2.10;2.00;;;20.50;99.90;;;;;;5033444;28;21005;-71
2021/06/05 00:46:42;;;;;;;3.00;2.43;;;20.60;99.90;;;;;;5050476;28;20228;-71
2021/06/05 00:49:09;;;;;;;2.50;2.30;;;20.60;99.90;;;;;;5033206;28;20567;-71
2021/06/05 00:51:49;;;;;;;2.63;2.43;;;20.60;99.90;;;;;;5032669;28;20496;-72
2021/06/05 00:54:19;;;;;;;2.20;1.97;;;20.50;99.90;;;;;;5048926;28;20458;-72
2021/06/05 00:56:51;;;;;;;2.53;2.33;;;20.50;99.90;;;;;;5032793;28;20589;-71
2021/06/05 00:59:16;;;;;;;3.40;2.57;;;20.40;99.90;;;;;;5066441;28;20472;-71
2021/06/05 01:01:42;;;;;;;2.80;2.60;;;20.40;99.90;;;;;;5033844;28;20494;-71
2021/06/05 01:04:10;;;;;;;3.27;2.03;;;20.50;99.90;;;;;;5066022;28;20215;-71
2021/06/05 01:06:48;;;;;;;2.70;2.43;;;20.40;99.90;;;;;;5032589;28;20364;-72
2021/06/05 01:09:28;;;;;;;2.53;2.13;;;20.40;99.90;;;;;;5048207;28;20541;-72
2021/06/05 01:12:24;;;;;;;2.90;2.70;;;20.30;99.90;;;;;;5047397;28;20450;-71
2021/06/05 01:15:08;;;;;;;2.83;2.63;;;20.30;99.90;;;;;;4994912;28;20542;-71
2021/06/05 01:17:41;;;;;;;1.87;1.73;;;20.40;99.90;;;;;;5029279;28;20841;-71
2021/06/05 01:21:01;;;;;;;1.97;1.83;;;20.40;99.90;;;;;;5044294;28;20539;-72
2021/06/05 01:24:07;;;;;;;2.17;2.00;;;20.40;99.90;;;;;;5028899;28;20463;-71
2021/06/05 01:26:37;;;;;;;2.47;2.30;;;20.20;99.90;;;;;;5029234;28;20504;-71
2021/06/05 01:29:14;;;;;;;2.20;2.10;;;20.20;99.90;;;;;;5029096;28;20452;-72
2021/06/05 01:31:44;;;;;;;2.10;2.00;;;20.30;99.90;;;;;;5036038;28;20454;-71
2021/06/05 01:34:12;;;;;;;1.90;1.80;;;20.30;99.90;;;;;;5032644;28;20504;-71
2021/06/05 01:36:44;;;;;;;2.07;1.70;;;20.40;99.90;;;;;;5031777;28;20455;-71
2021/06/05 01:39:27;;;;;;;2.07;1.97;;;20.40;99.90;;;;;;5064147;28;20963;-71
2021/06/05 01:41:55;;;;;;;1.70;1.60;;;20.40;99.90;;;;;;5081890;28;20529;-72
2021/06/05 01:44:24;;;;;;;8.60;2.20;;;20.40;99.90;;;;;;5049052;28;20980;-72
2021/06/05 01:46:51;;;;;;;1.77;1.60;;;20.40;99.90;;;;;;5048401;28;20557;-72
2021/06/05 01:49:21;;;;;;;2.57;1.80;;;20.50;99.90;;;;;;5031526;28;20507;-72
2021/06/05 01:51:55;;;;;;;3.33;2.17;;;20.50;99.90;;;;;;5047519;28;20499;-71
2021/06/05 01:54:34;;;;;;;1.90;1.80;;;20.50;99.90;;;;;;5032081;28;20459;-71
2021/06/05 01:57:04;;;;;;;2.13;2.03;;;20.50;99.90;;;;;;5032034;28;20473;-71
2021/06/05 01:59:45;;;;;;;1.60;1.50;;;20.50;99.90;;;;;;5050170;28;20485;-71
2021/06/05 02:02:11;;;;;;;2.13;2.03;;;20.50;99.90;;;;;;5048636;28;20958;-71
2021/06/05 02:04:38;;;;;;;2.30;2.10;;;20.50;99.90;;;;;;5015317;28;20461;-71
2021/06/05 02:07:07;;;;;;;1.83;1.63;;;20.40;99.90;;;;;;5050486;28;20223;-72
2021/06/05 02:09:35;;;;;;;3.23;2.10;;;20.40;99.90;;;;;;5032205;28;20993;-71
2021/06/05 02:12:23;;;;;;;2.50;2.30;;;20.40;99.90;;;;;;5049766;28;20545;-72
2021/06/05 02:15:27;;;;;;;2.13;1.87;;;20.40;99.90;;;;;;5063332;28;20500;-71
2021/06/05 02:18:02;;;;;;;2.03;1.93;;;20.40;99.90;;;;;;4990696;28;20443;-72
2021/06/05 02:20:35;;;;;;;1.93;1.73;;;20.40;99.90;;;;;;5081977;28;20473;-71
2021/06/05 02:23:11;;;;;;;4.60;2.30;;;20.30;99.90;;;;;;5047564;28;20465;-71
2021/06/05 02:25:36;;;;;;;2.77;2.57;;;20.30;99.90;;;;;;5065128;28;20478;-71
2021/06/05 02:28:05;;;;;;;2.40;2.20;;;20.30;99.90;;;;;;5065382;28;20504;-71
2021/06/05 02:30:33;;;;;;;2.50;2.00;;;20.30;99.90;;;;;;5032088;28;20537;-71
2021/06/05 02:33:00;;;;;;;2.13;2.00;;;20.30;99.90;;;;;;5047696;28;20458;-71
2021/06/05 02:35:36;;;;;;;4.00;1.73;;;20.20;99.90;;;;;;5032391;28;20461;-71
2021/06/05 02:38:15;;;;;;;1.90;1.80;;;20.30;99.90;;;;;;5065172;28;20454;-71
2021/06/05 02:40:43;;;;;;;2.20;2.10;;;20.20;99.90;;;;;;5047789;28;20466;-71
2021/06/05 02:43:16;;;;;;;2.30;2.10;;;20.20;99.90;;;;;;5064942;28;20512;-72
2021/06/05 02:45:53;;;;;;;1.60;1.47;;;20.20;99.90;;;;;;5048348;28;20467;-72
2021/06/05 02:48:22;;;;;;;2.20;2.00;;;20.20;99.90;;;;;;5064640;28;20464;-71
2021/06/05 02:50:53;;;;;;;2.17;1.97;;;20.20;99.90;;;;;;5049853;28;20466;-72
2021/06/05 02:53:20;;;;;;;2.43;2.23;;;20.10;99.90;;;;;;5052169;28;20512;-71
2021/06/05 02:55:47;;;;;;;1.73;1.63;;;20.10;99.90;;;;;;5068171;28;20878;-71
2021/06/05 02:58:14;;;;;;;7.43;2.07;;;20.10;99.90;;;;;;5035633;28;20991;-71
2021/06/05 03:00:46;;;;;;;2.03;1.80;;;20.10;99.90;;;;;;5050965;28;20497;-72
2021/06/05 03:03:18;;;;;;;2.00;1.80;;;20.10;99.90;;;;;;5049639;28;20473;-71
2021/06/05 03:05:45;;;;;;;1.80;1.70;;;20.10;99.90;;;;;;5067096;28;20474;-72
2021/06/05 03:08:24;;;;;;;2.23;2.07;;;20.00;99.90;;;;;;5066615;28;20450;-71
2021/06/05 03:10:52;;;;;;;1.90;1.80;;;20.00;99.90;;;;;;5049328;28;20462;-72
2021/06/05 03:13:19;;;;;;;2.23;2.03;;;20.00;99.90;;;;;;5034886;28;20504;-72
2021/06/05 03:15:47;;;;;;;2.57;1.93;;;20.00;99.90;;;;;;5067942;28;20473;-72
2021/06/05 03:18:17;;;;;;;1.93;1.83;;;20.00;99.90;;;;;;5034475;28;20900;-71
2021/06/05 03:20:45;;;;;;;2.53;2.33;;;19.90;99.90;;;;;;5067516;28;20530;-71
2021/06/05 03:23:13;;;;;;;2.70;2.50;;;19.80;99.90;;;;;;5035010;28;21031;-71
2021/06/05 03:25:41;;;;;;;8.27;2.30;;;19.60;99.90;;;;;;5034331;28;20511;-71
2021/06/05 03:28:07;;;;;;;3.10;2.90;;;19.60;99.90;;;;;;5051520;28;20442;-71
2021/06/05 03:30:34;;;;;;;2.93;2.07;;;19.60;99.90;;;;;;5035199;28;20215;-72
2021/06/05 03:33:04;;;;;;;2.43;2.10;;;19.70;99.90;;;;;;5034673;28;20457;-71
2021/06/05 03:35:33;;;;;;;2.70;2.50;;;19.70;99.90;;;;;;5067389;28;20533;-72
2021/06/05 03:37:59;;;;;;;1.90;1.80;;;19.70;99.90;;;;;;5067185;28;20476;-71
2021/06/05 03:40:30;;;;;;;2.30;2.10;;;19.70;99.90;;;;;;5052638;28;20604;-71
2021/06/05 03:42:57;;;;;;;1.93;1.83;;;19.70;99.90;;;;;;5033852;28;20443;-71
2021/06/05 03:45:24;;;;;;;2.13;1.93;;;19.70;99.90;;;;;;5051694;28;20469;-71
2021/06/05 03:47:50;;;;;;;1.93;1.83;;;19.70;99.90;;;;;;5034322;28;20465;-71
2021/06/05 03:50:21;;;;;;;2.03;1.90;;;19.60;99.90;;;;;;5034259;28;20789;-71
2021/06/05 03:53:00;;;;;;;1.93;1.83;;;19.60;99.90;;;;;;5119625;27;20896;-70
2021/06/05 03:55:26;;;;;;;2.20;2.10;;;19.60;99.90;;;;;;5049682;28;20464;-70
2021/06/05 03:57:52;;;;;;;3.50;2.50;;;19.50;99.90;;;;;;5085042;28;20463;-71
2021/06/05 04:00:25;;;;;;;2.00;1.90;;;19.50;99.90;;;;;;5069257;28;20539;-70
2021/06/05 04:02:51;;;;;;;2.43;2.23;;;19.50;99.90;;;;;;5069187;28;20498;-71
2021/06/05 04:05:18;;;;;;;1.90;1.80;;;19.50;99.90;;;;;;5069898;28;20869;-70
2021/06/05 04:07:43;;;;;;;2.37;2.17;;;19.40;99.90;;;;;;5086290;28;20297;-70
2021/06/05 04:10:11;;;;;;;2.60;2.40;;;19.40;99.90;;;;;;5086456;28;20453;-70
2021/06/05 04:12:37;;;;;;;3.37;2.23;;;19.40;99.90;;;;;;5082452;28;20504;-70
2021/06/05 04:15:09;;;;;;;2.50;2.30;;;19.30;99.90;;;;;;5092354;28;20441;-70
2021/06/05 04:17:36;;;;;;;3.00;2.80;;;19.30;99.90;;;;;;5111413;28;20448;-70
2021/06/05 04:20:04;;;;;;;2.60;2.40;;;19.30;99.90;;;;;;5102332;28;20482;-71
2021/06/05 04:22:30;;;;;;;2.63;2.43;;;19.30;99.90;;;;;;5089148;28;20479;-71
2021/06/05 04:24:56;;;;;;;2.60;2.30;;;19.30;99.90;;;;;;5088476;28;20468;-70
2021/06/05 04:27:21;;;;;;;2.23;2.03;;;19.20;99.90;;;;;;5072437;28;20226;-71
2021/06/05 04:29:47;;;;;;;2.97;2.77;;;19.20;99.90;;;;;;5089035;28;20222;-70
2021/06/05 04:32:14;;;;;;;2.90;2.60;;;19.20;99.90;;;;;;5072808;28;20217;-71
2021/06/05 04:34:40;;;;;;;2.67;2.47;;;19.20;99.90;;;;;;5088746;28;20634;-71
2021/06/05 04:37:06;;;;;;;3.10;2.80;;;19.20;99.90;;;;;;5055983;28;20313;-71
2021/06/05 04:39:34;;;;;;;2.50;2.30;;;19.10;99.90;;;;;;5089315;28;20210;-71
2021/06/05 04:42:00;;;;;;;2.03;1.87;;;19.20;99.90;;;;;;5105925;28;21032;-71
2021/06/05 04:44:25;;;;;;;6.90;2.10;;;19.20;99.90;;;;;;5072368;28;20240;-71
2021/06/05 04:46:51;;;;;;;2.50;2.30;;;19.20;99.90;;;;;;5086929;28;20234;-71
2021/06/05 04:49:17;;;;;;;2.03;1.93;;;19.20;99.90;;;;;;5088683;28;20222;-71
2021/06/05 04:51:42;;;;;;;1.93;1.83;;;19.10;99.90;;;;;;5087680;28;20308;-71
2021/06/05 04:54:09;;;;;;;2.13;2.03;;;19.20;99.90;;;;;;5071809;28;20205;-71
2021/06/05 04:56:44;;;;;;;3.27;2.23;;;19.20;99.90;;;;;;5071824;28;20226;-71
2021/06/05 04:59:12;;;;;;;3.73;2.40;;;19.20;99.90;;;;;;5107275;28;20447;-72
2021/06/05 05:01:38;;;;;;;2.33;2.13;;;19.20;99.90;;;;;;5105292;28;20463;-73
2021/06/05 05:04:04;;;;;;;5.13;2.90;;;19.20;99.90;;;;;;5093955;28;20455;-72
2021/06/05 05:06:31;;;;;;;2.47;2.27;;;19.20;99.90;;;;;;5058735;28;20456;-73
2021/06/05 05:08:57;;;;;;;2.03;1.93;;;19.20;99.90;;;;;;5074556;28;20315;-72
2021/06/05 05:11:23;;;;;;;2.87;2.23;;;19.20;99.90;;;;;;5091420;28;20468;-72
2021/06/05 05:13:49;;;;;;;1.83;1.73;;;19.20;99.90;;;;;;5074003;28;20478;-72
2021/06/05 05:16:15;;;;;;;1.90;1.80;;;19.30;99.90;;;;;;5071737;28;20461;-73
2021/06/05 05:18:46;;;;;;;2.57;2.37;;;19.30;99.90;;;;;;5090400;28;20218;-73
2021/06/05 05:21:14;;;;;;;2.27;2.07;;;19.30;99.90;;;;;;5075276;28;20449;-72
2021/06/05 05:23:40;;;;;;;1.97;1.77;;;19.30;99.90;;;;;;5090756;28;20452;-73
2021/06/05 05:26:07;;;;;;;2.10;2.00;;;19.30;99.90;;;;;;5075079;28;20983;-73
2021/06/05 05:28:34;;;;;;;2.53;2.33;;;19.30;99.90;;;;;;5075212;28;20558;-72
2021/06/05 05:31:02;;;;;;;2.27;2.10;;;19.30;99.90;;;;;;5083567;28;20477;-72
2021/06/05 05:33:28;;;;;;;2.80;2.60;;;19.30;99.90;;;;;;5037901;28;20459;-72
2021/06/05 05:35:55;;;;;;;2.03;1.93;;;19.40;99.90;;;;;;5071071;28;23267;-72
2021/06/05 05:38:22;;;;;;;2.60;2.40;;;19.40;99.90;;;;;;5071034;28;20215;-73
2021/06/05 05:40:49;;;;;;;4.10;3.30;;;19.40;99.90;;;;;;5082131;28;20527;-72
2021/06/05 05:43:16;;;;;;;3.23;2.93;;;19.30;99.90;;;;;;5074201;28;20490;-72
2021/06/05 05:45:42;;;;;;;3.77;3.10;;;19.40;99.90;;;;;;5053816;28;20464;-73
2021/06/05 05:48:10;;;;;;;3.03;2.73;;;19.40;99.90;;;;;;5071163;28;20449;-73
2021/06/05 05:50:37;;;;;;;2.23;1.93;;;19.40;99.90;;;;;;5070770;28;20214;-72
2021/06/05 05:53:05;;;;;;;2.47;2.27;;;19.50;99.90;;;;;;5060028;28;20453;-73
2021/06/05 05:55:31;;;;;;;3.70;2.77;;;19.50;99.90;;;;;;5074374;28;20468;-73
2021/06/05 05:58:05;;;;;;;4.23;3.57;;;19.50;99.90;;;;;;5092188;28;21188;-73
2021/06/05 06:00:33;;;;;;;4.60;3.60;;;19.50;99.90;;;;;;5074699;28;20460;-72
2021/06/05 06:02:59;;;;;;;2.60;2.40;;;19.50;99.90;;;;;;5073944;28;21807;-73
2021/06/05 06:05:25;;;;;;;3.30;2.87;;;19.50;99.90;;;;;;5074426;28;20540;-73
2021/06/05 06:07:50;;;;;;;4.00;3.60;;;19.50;99.90;;;;;;5084402;28;20219;-73
2021/06/05 06:10:17;;;;;;;4.17;3.50;;;19.50;99.90;;;;;;5074270;28;20301;-73
2021/06/05 06:12:43;;;;;;;4.63;3.30;;;19.50;99.90;;;;;;5086537;28;20223;-72
2021/06/05 06:15:13;;;;;;;4.60;4.20;;;19.50;99.90;;;;;;5087551;28;20440;-73
2021/06/05 06:17:41;;;;;;;4.27;3.87;;;19.50;99.90;;;;;;5073728;28;20449;-73
2021/06/05 06:20:09;;;;;;;4.07;3.67;;;19.50;99.90;;;;;;5074093;28;20924;-73
2021/06/05 06:22:36;;;;;;;3.97;3.60;;;19.50;99.90;;;;;;5090393;28;20448;-72
2021/06/05 06:25:04;;;;;;;3.40;3.10;;;19.60;99.90;;;;;;5057494;28;20440;-73
2021/06/05 06:27:33;;;;;;;3.70;3.40;;;19.60;99.90;;;;;;5040869;28;20445;-73
2021/06/05 06:29:59;;;;;;;3.00;2.80;;;19.60;99.90;;;;;;5072862;28;20978;-73
2021/06/05 06:32:25;;;;;;;3.20;2.87;;;19.70;99.90;;;;;;5069702;28;21039;-73
2021/06/05 06:34:50;;;;;;;5.13;2.97;;;19.70;99.90;;;;;;5087570;28;20539;-73
2021/06/05 06:37:16;;;;;;;3.63;3.33;;;19.70;99.90;;;;;;5056473;28;20543;-73
2021/06/05 06:39:42;;;;;;;3.90;3.20;;;19.70;99.90;;;;;;5072244;28;20305;-73
2021/06/05 06:42:08;;;;;;;4.17;3.30;;;19.80;99.90;;;;;;5072764;28;20222;-73
2021/06/05 06:44:33;;;;;;;3.63;3.27;;;19.80;99.90;;;;;;5073493;28;20222;-73
2021/06/05 06:46:59;;;;;;;3.60;3.30;;;19.90;99.90;;;;;;5089390;28;20222;-73
2021/06/05 06:49:25;;;;;;;3.00;2.63;;;19.90;99.90;;;;;;5088992;28;20228;-72
2021/06/05 06:51:51;;;;;;;4.10;3.67;;;19.90;99.90;;;;;;5072090;28;20261;-72
2021/06/05 06:54:17;;;;;;;4.10;3.80;;;20.00;99.90;;;;;;5088313;28;20203;-72
2021/06/05 06:56:44;;;;;;;3.23;2.93;;;20.00;99.90;;;;;;5089221;28;20460;-73
2021/06/05 06:59:10;;;;;;;3.00;2.80;;;20.00;99.90;;;;;;5073068;28;20443;-73
2021/06/05 07:01:36;;;;;;;4.00;3.60;;;20.00;99.90;;;;;;5089505;28;20452;-73
2021/06/05 07:04:03;;;;;;;3.90;3.40;;;20.10;99.90;;;;;;5069405;28;21053;-73
2021/06/05 07:06:28;;;;;;;4.43;3.37;;;20.10;99.90;;;;;;5086925;28;20457;-73
2021/06/05 07:08:55;;;;;;;3.30;3.00;;;20.20;99.90;;;;;;5068436;28;20453;-73
2021/06/05 07:11:29;;;;;;;3.83;3.53;;;20.20;99.90;;;;;;5088434;28;20221;-72
2021/06/05 07:13:57;;;;;;;3.53;3.23;;;20.30;99.90;;;;;;5087330;28;20457;-73
2021/06/05 07:16:23;;;;;;;3.33;3.03;;;20.30;99.90;;;;;;5089728;28;20916;-73
2021/06/05 07:18:49;;;;;;;3.50;3.07;;;20.30;99.90;;;;;;5072220;28;20448;-73
2021/06/05 07:21:15;;;;;;;2.90;2.70;;;20.30;99.90;;;;;;5072914;28;20449;-72
2021/06/05 07:23:42;;;;;;;2.67;2.47;;;20.30;99.90;;;;;;5088689;28;20449;-73
2021/06/05 07:26:14;;;;;;;3.37;3.07;;;20.40;99.90;;;;;;5089724;28;20448;-72
2021/06/05 07:28:43;;;;;;;3.00;2.80;;;20.50;99.90;;;;;;5073019;28;20456;-73
2021/06/05 07:31:14;;;;;;;3.03;2.40;;;20.50;99.90;;;;;;5089627;28;20564;-73
2021/06/05 07:33:44;;;;;;;3.00;2.80;;;20.50;99.90;;;;;;5089279;28;20445;-73
2021/06/05 07:36:15;;;;;;;3.90;3.50;;;20.60;99.90;;;;;;5089789;28;20460;-73
2021/06/05 07:42:06;;;;;;;3.30;2.70;;;20.70;99.90;;;;;;5089281;28;20440;-72
2021/06/05 07:44:32;;;;;;;2.87;2.67;;;20.70;99.90;;;;;;5056366;28;20825;-71
2021/06/05 07:47:00;;;;;;;3.37;2.77;;;20.80;99.90;;;;;;5068530;28;20441;-71
2021/06/05 07:49:33;;;;;;;7.23;4.17;;;21.00;99.90;;;;;;5085785;28;20576;-71
2021/06/05 07:52:00;;;;;;;3.90;3.37;;;21.00;99.90;;;;;;5069821;28;20453;-71
2021/06/05 07:54:26;;;;;;;2.90;2.70;;;21.10;99.90;;;;;;5088594;28;20467;-72
2021/06/05 07:56:52;;;;;;;3.40;3.10;;;21.10;99.90;;;;;;5088291;28;20456;-72
2021/06/05 07:59:20;;;;;;;3.47;3.17;;;21.10;99.90;;;;;;5089124;28;20267;-72
2021/06/05 08:02:18;;;;;;;5.50;4.50;;;21.20;99.90;;;;;;5077500;28;20470;-72
2021/06/05 08:04:44;;;;;;;3.50;3.20;;;21.30;99.90;;;;;;5077545;28;20441;-72
2021/06/05 08:07:10;;;;;;;5.70;5.30;;;21.30;99.90;;;;;;5069038;28;20446;-72
2021/06/05 08:09:36;;;;;;;4.73;4.33;;;21.30;99.90;;;;;;5052301;28;20211;-71
2021/06/05 08:12:03;;;;;;;4.80;4.17;;;21.40;99.90;;;;;;5070191;28;20477;-72
2021/06/05 08:14:29;;;;;;;3.53;3.23;;;21.50;99.90;;;;;;5051953;28;20446;-72
2021/06/05 08:16:55;;;;;;;4.17;3.50;;;21.60;99.90;;;;;;5051846;28;20460;-72
2021/06/05 08:19:21;;;;;;;3.73;3.43;;;21.70;99.90;;;;;;5068865;28;20211;-71
2021/06/05 08:21:47;;;;;;;3.70;2.97;;;21.70;99.90;;;;;;5051878;28;20456;-72
2021/06/05 08:24:14;;;;;;;3.33;3.10;;;21.80;99.90;;;;;;5051713;28;20449;-72
2021/06/05 08:26:41;;;;;;;3.77;3.47;;;21.80;99.90;;;;;;5068120;28;20237;-71
2021/06/05 08:29:16;;;;;;;3.50;3.20;;;21.80;99.90;;;;;;5055427;28;20496;-72
2021/06/05 08:31:41;;;;;;;3.47;3.17;;;21.90;99.90;;;;;;5050505;28;20474;-72
2021/06/05 08:34:07;;;;;;;4.13;2.70;;;22.00;99.90;;;;;;5070844;28;20440;-72
2021/06/05 08:36:34;;;;;;;3.80;3.50;;;22.10;99.90;;;;;;5038674;28;20218;-72
2021/06/05 08:39:01;;;;;;;4.20;3.90;;;22.10;99.90;;;;;;5084855;28;20788;-72
2021/06/05 08:41:35;;;;;;;3.57;3.27;;;22.20;99.90;;;;;;5042149;28;20449;-72
2021/06/05 08:44:11;;;;;;;3.97;3.60;;;22.20;99.90;;;;;;5084672;28;20448;-72
2021/06/05 08:46:44;;;;;;;3.10;2.90;;;22.30;99.90;;;;;;5085787;28;20462;-72
2021/06/05 08:49:32;;;;;;;4.60;4.00;;;22.30;99.90;;;;;;5073769;28;20449;-72
2021/06/05 08:52:30;;;;;;;3.93;3.63;;;22.40;99.90;;;;;;5092352;28;20487;-72
2021/06/05 08:55:14;;;;;;;4.60;4.20;;;22.40;99.90;;;;;;5090536;28;20558;-72
2021/06/05 08:57:51;;;;;;;4.37;4.00;;;22.40;99.90;;;;;;5082352;28;20464;-72
2021/06/05 09:00:38;;;;;;;3.40;2.87;;;22.40;99.90;;;;;;5076900;28;20456;-72
2021/06/05 09:03:24;;;;;;;3.40;3.17;;;22.50;99.90;;;;;;5091191;28;20958;-72
2021/06/05 09:06:04;;;;;;;3.70;3.40;;;22.50;99.90;;;;;;5090658;28;20463;-72
2021/06/05 09:08:30;;;;;;;3.57;3.27;;;22.60;99.90;;;;;;5071555;28;20484;-72
2021/06/05 09:11:00;;;;;;;4.03;3.63;;;22.70;99.90;;;;;;5064254;28;20982;-72
2021/06/05 09:13:26;;;;;;;3.90;3.00;;;22.70;99.90;;;;;;5087501;28;20449;-72
2021/06/05 09:16:19;;;;;;;3.50;3.20;;;22.80;99.90;;;;;;5067717;28;20437;-72
2021/06/05 09:18:48;;;;;;;3.23;3.03;;;22.90;99.90;;;;;;5091109;28;20448;-72
2021/06/05 09:21:34;;;;;;;3.60;3.30;;;22.90;99.90;;;;;;5058233;28;20452;-72
2021/06/05 09:24:32;;;;;;;3.60;3.30;;;23.00;99.90;;;;;;5089445;28;21028;-72
2021/06/05 09:27:01;;;;;;;3.40;3.20;;;23.00;99.90;;;;;;5085358;28;20444;-72
2021/06/05 09:29:27;;;;;;;3.53;3.33;;;23.00;99.90;;;;;;5078833;28;20972;-72
2021/06/05 09:32:09;;;;;;;4.33;4.03;;;23.10;99.90;;;;;;5053030;28;20839;-72
2021/06/05 09:34:39;;;;;;;3.43;3.23;;;23.20;99.90;;;;;;5090705;28;20473;-72
2021/06/05 09:37:20;;;;;;;3.03;2.83;;;23.20;99.90;;;;;;5054133;28;20515;-72
2021/06/05 09:40:25;;;;;;;3.63;3.43;;;23.20;99.90;;;;;;5089999;28;20481;-73
2021/06/05 09:42:58;;;;;;;4.03;3.73;;;23.30;99.90;;;;;;5067485;28;21030;-73
2021/06/05 09:45:30;;;;;;;3.83;3.57;;;23.30;99.90;;;;;;5090366;28;20589;-73
2021/06/05 09:48:22;;;;;;;3.43;3.23;;;23.40;99.90;;;;;;5090041;28;20443;-73
2021/06/05 09:50:50;;;;;;;4.07;3.77;;;23.40;99.90;;;;;;5072307;28;20448;-73
2021/06/05 09:53:21;;;;;;;3.67;3.40;;;23.40;99.90;;;;;;5085878;28;20455;-73
2021/06/05 09:55:47;;;;;;;3.53;3.23;;;23.40;99.90;;;;;;5073590;28;20594;-73
2021/06/05 09:58:32;;;;;;;3.53;3.23;;;23.40;99.90;;;;;;5073391;28;20531;-73
2021/06/05 10:01:18;;;;;;;3.10;2.90;;;23.40;99.90;;;;;;5072030;28;20229;-73
2021/06/05 10:03:45;;;;;;;3.80;3.50;;;23.40;99.90;;;;;;5072833;28;20955;-73
2021/06/05 10:06:35;;;;;;;5.00;3.50;;;23.40;99.90;;;;;;5068195;28;20460;-73
2021/06/05 10:09:24;;;;;;;3.40;3.10;;;23.40;99.90;;;;;;5069392;28;20468;-73
2021/06/05 10:12:04;;;;;;;3.67;3.37;;;23.40;99.90;;;;;;5054464;28;20462;-73
2021/06/05 10:14:58;;;;;;;3.50;3.20;;;23.40;99.90;;;;;;5069665;28;20465;-73
2021/06/05 10:17:33;;;;;;;3.27;3.07;;;23.40;99.90;;;;;;5071481;28;20591;-73
2021/06/05 10:20:24;;;;;;;3.70;3.17;;;23.40;99.90;;;;;;5069143;28;20471;-73
2021/06/05 10:22:55;;;;;;;4.13;3.73;;;23.40;99.90;;;;;;5052429;28;20594;-73
2021/06/05 10:25:47;;;;;;;3.93;3.63;;;23.40;99.90;;;;;;5053479;28;20462;-73
2021/06/05 10:28:22;;;;;;;3.40;3.20;;;23.30;99.90;;;;;;5066021;28;20468;-73
2021/06/05 10:31:03;;;;;;;3.77;3.47;;;23.40;99.90;;;;;;5053123;28;20535;-73
2021/06/05 10:33:43;;;;;;;3.60;3.30;;;23.40;99.90;;;;;;5057250;28;20456;-73
2021/06/05 10:36:14;;;;;;;3.90;3.60;;;23.50;99.90;;;;;;5071418;28;20532;-73
2021/06/05 10:38:57;;;;;;;4.10;3.70;;;23.50;99.90;;;;;;5071710;28;20865;-72
2021/06/05 10:41:27;;;;;;;4.23;3.93;;;23.50;99.90;;;;;;5088995;28;20955;-72
2021/06/05 10:43:53;;;;;;;3.77;3.57;;;23.60;99.90;;;;;;5082438;28;20906;-72
2021/06/05 10:46:31;;;;;;;4.50;4.10;;;23.60;99.90;;;;;;5067321;28;20988;-72
2021/06/05 10:49:21;;;;;;;3.77;3.57;;;23.60;99.90;;;;;;5077671;28;20452;-72
2021/06/05 10:51:53;;;;;;;5.40;3.77;;;23.60;99.90;;;;;;5086064;28;20473;-72
2021/06/05 10:54:26;;;;;;;3.93;3.63;;;23.70;99.90;;;;;;5088417;28;20456;-72
2021/06/05 10:57:23;;;;;;;4.13;3.80;;;23.70;99.90;;;;;;5072292;28;20470;-73
2021/06/05 10:59:58;;;;;;;4.60;3.40;;;23.70;99.90;;;;;;5089653;28;20456;-72
2021/06/05 11:02:36;;;;;;;4.40;4.00;;;23.70;99.90;;;;;;5066368;28;20505;-73
2021/06/05 11:05:27;;;;;;;4.73;4.37;;;23.80;99.90;;;;;;5088125;28;20993;-72
2021/06/05 11:08:24;;;;;;;4.27;3.97;;;23.70;99.90;;;;;;5031456;28;20448;-72
2021/06/05 11:11:00;;;;;;;4.10;3.80;;;23.80;99.90;;;;;;5066130;28;20445;-73
2021/06/05 11:13:33;;;;;;;4.70;4.40;;;23.80;99.90;;;;;;5088295;28;20532;-73
2021/06/05 11:16:43;;;;;;;4.10;3.70;;;23.90;99.90;;;;;;5068942;28;20437;-72
2021/06/05 11:19:33;;;;;;;3.77;3.47;;;23.90;99.90;;;;;;5060785;28;20445;-72
2021/06/05 11:22:14;;;;;;;3.87;3.57;;;23.90;99.90;;;;;;5090432;28;20431;-72
2021/06/05 11:24:44;;;;;;;4.63;4.23;;;24.10;99.90;;;;;;5088311;28;20444;-72
2021/06/05 11:27:31;;;;;;;3.97;3.67;;;24.10;99.90;;;;;;5034985;28;20459;-73
2021/06/05 11:29:59;;;;;;;3.63;3.37;;;24.10;99.90;;;;;;5083572;28;20462;-73
2021/06/05 11:32:44;;;;;;;3.33;3.13;;;24.10;99.90;;;;;;5077319;28;21114;-72
2021/06/05 11:35:18;;;;;;;4.23;3.90;;;24.20;99.90;;;;;;5071991;28;20448;-72
2021/06/05 11:37:47;;;;;;;4.13;3.83;;;24.30;99.90;;;;;;5073533;28;20460;-72
2021/06/05 11:40:51;;;;;;;4.13;3.70;;;24.30;99.90;;;;;;5063120;28;20500;-72
2021/06/05 11:43:27;;;;;;;4.13;3.83;;;24.30;99.90;;;;;;5068324;28;20931;-72
2021/06/05 11:45:58;;;;;;;3.73;3.50;;;24.30;99.90;;;;;;5086325;28;20958;-72
2021/06/05 11:48:37;;;;;;;4.13;3.73;;;24.40;99.90;;;;;;5066700;28;21316;-72
2021/06/05 11:51:21;;;;;;;3.90;3.60;;;24.50;99.90;;;;;;5067540;28;20463;-72
2021/06/05 11:53:48;;;;;;;4.17;3.87;;;24.50;99.90;;;;;;5061193;28;20487;-72
2021/06/05 11:56:22;;;;;;;5.03;4.20;;;24.60;99.90;;;;;;5087686;28;20452;-72
2021/06/05 11:58:49;;;;;;;4.50;4.20;;;24.70;99.90;;;;;;5066769;28;20445;-72
2021/06/05 12:01:28;;;;;;;4.17;3.77;;;24.80;99.90;;;;;;5035554;28;20456;-72
2021/06/05 12:04:20;;;;;;;4.43;4.13;;;24.80;99.90;;;;;;5070949;28;20458;-72
2021/06/05 12:06:48;;;;;;;4.40;3.60;;;24.70;99.90;;;;;;5051344;28;20472;-72
2021/06/05 12:09:15;;;;;;;4.27;3.83;;;24.80;99.90;;;;;;5082676;28;20463;-73
2021/06/05 12:11:41;;;;;;;4.50;3.43;;;24.80;99.90;;;;;;5089274;28;20481;-72
2021/06/05 12:14:15;;;;;;;7.30;3.90;;;24.80;99.90;;;;;;5086776;28;20440;-72
2021/06/05 12:16:51;;;;;;;4.20;3.90;;;24.80;99.90;;;;;;5075882;28;20220;-72
2021/06/05 12:19:17;;;;;;;13.43;5.57;;;24.80;99.90;;;;;;5057223;28;20439;-72
2021/06/05 12:21:44;;;;;;;7.00;5.27;;;24.80;99.90;;;;;;5094945;28;20447;-72
2021/06/05 12:24:23;;;;;;;4.60;3.70;;;24.80;99.90;;;;;;5073071;28;20305;-72
2021/06/05 12:27:01;;;;;;;3.63;3.33;;;24.80;99.90;;;;;;5078691;28;20460;-72
2021/06/05 12:29:32;;;;;;;5.63;4.17;;;24.80;99.90;;;;;;5091529;28;20456;-72
2021/06/05 12:32:12;;;;;;;4.30;3.90;;;24.80;99.90;;;;;;5086024;28;20456;-72
2021/06/05 12:34:39;;;;;;;5.60;5.03;;;24.80;99.90;;;;;;5085249;28;20447;-72
2021/06/05 12:37:16;;;;;;;5.60;4.90;;;24.60;99.90;;;;;;5072090;28;20464;-72
2021/06/05 12:39:45;;;;;;;5.20;4.53;;;24.50;99.90;;;;;;5090474;28;20474;-72
2021/06/05 12:42:33;;;;;;;3.90;3.60;;;24.20;99.90;;;;;;5086450;28;21048;-72
2021/06/05 12:45:06;;;;;;;3.70;3.40;;;24.10;99.90;;;;;;5089524;28;20451;-72
2021/06/05 12:47:36;;;;;;;6.60;3.30;;;24.10;99.90;;;;;;5085468;28;20495;-72
2021/06/05 12:50:05;;;;;;;4.13;3.73;;;24.00;99.90;;;;;;5058346;28;20505;-72
2021/06/05 12:52:32;;;;;;;3.50;3.20;;;24.00;99.90;;;;;;5055140;28;20500;-72
2021/06/05 12:55:21;;;;;;;5.60;3.60;;;23.90;99.90;;;;;;5063397;28;20451;-73
2021/06/05 12:57:52;;;;;;;3.20;3.00;;;23.90;99.90;;;;;;5053628;28;20459;-72
2021/06/05 13:00:29;;;;;;;2.57;2.37;;;23.80;99.90;;;;;;5071099;28;21029;-72
2021/06/05 13:03:18;;;;;;;1.93;1.83;;;23.70;99.90;;;;;;5089882;28;20527;-72
2021/06/05 13:06:05;;;;;;;2.23;2.03;;;23.70;99.90;;;;;;5087173;28;20487;-72
2021/06/05 13:08:35;;;;;;;1.77;1.40;;;23.70;99.90;;;;;;5086759;28;20443;-72
2021/06/05 13:11:02;;;;;;;1.20;1.10;;;23.60;99.90;;;;;;5090703;28;20939;-72
2021/06/05 13:13:31;;;;;;;1.37;1.27;;;23.50;99.90;;;;;;5070941;28;20838;-72
2021/06/05 13:16:19;;;;;;;1.20;1.10;;;23.50;99.90;;;;;;5073790;28;20481;-72